sensor_id;sensor_type;location;lat;lon;timestamp;temperature;humidity
26821;DHT22;37186;51.394;5.454;2024-02-21T00:01:56;11.40;88.50
26821;DHT22;37186;51.394;5.454;2024-02-21T00:04:56;11.40;88.60
26821;DHT22;37186;51.394;5.454;2024-02-21T00:07:59;11.40;88.50
26821;DHT22;37186;51.394;5.454;2024-02-21T00:10:59;11.40;88.50
26821;DHT22;37186;51.394;5.454;2024-02-21T00:14:00;11.40;88.60
26821;DHT22;37186;51.394;5.454;2024-02-21T00:17:00;11.40;88.50
26821;DHT22;37186;51.394;5.454;2024-02-21T00:20:01;11.40;88.40
26821;DHT22;37186;51.394;5.454;2024-02-21T00:23:01;11.40;88.50
26821;DHT22;37186;51.394;5.454;2024-02-21T00:26:02;11.40;88.50
26821;DHT22;37186;51.394;5.454;2024-02-21T00:29:03;11.40;88.50
26821;DHT22;37186;51.394;5.454;2024-02-21T00:32:03;11.40;88.60
26821;DHT22;37186;51.394;5.454;2024-02-21T00:35:04;11.40;88.60
26821;DHT22;37186;51.394;5.454;2024-02-21T00:38:05;11.40;88.60
26821;DHT22;37186;51.394;5.454;2024-02-21T00:41:05;11.40;88.50
26821;DHT22;37186;51.394;5.454;2024-02-21T00:44:06;11.40;88.50
26821;DHT22;37186;51.394;5.454;2024-02-21T00:47:06;11.40;88.60
26821;DHT22;37186;51.394;5.454;2024-02-21T00:50:08;11.40;88.60
26821;DHT22;37186;51.394;5.454;2024-02-21T00:53:09;11.40;88.40
26821;DHT22;37186;51.394;5.454;2024-02-21T00:56:10;11.40;88.50
26821;DHT22;37186;51.394;5.454;2024-02-21T00:59:11;11.40;88.60
26821;DHT22;37186;51.394;5.454;2024-02-21T01:02:11;11.30;88.40
26821;DHT22;37186;51.394;5.454;2024-02-21T01:05:12;11.40;88.30
26821;DHT22;37186;51.394;5.454;2024-02-21T01:08:12;11.40;88.30
26821;DHT22;37186;51.394;5.454;2024-02-21T01:11:14;11.30;88.30
26821;DHT22;37186;51.394;5.454;2024-02-21T01:14:14;11.30;88.30
26821;DHT22;37186;51.394;5.454;2024-02-21T01:17:15;11.30;88.10
26821;DHT22;37186;51.394;5.454;2024-02-21T01:20:16;11.30;88.30
26821;DHT22;37186;51.394;5.454;2024-02-21T01:23:16;11.30;88.30
26821;DHT22;37186;51.394;5.454;2024-02-21T01:26:17;11.30;88.50
26821;DHT22;37186;51.394;5.454;2024-02-21T01:29:18;11.30;88.40
26821;DHT22;37186;51.394;5.454;2024-02-21T01:32:19;11.30;88.30
26821;DHT22;37186;51.394;5.454;2024-02-21T01:35:22;11.30;88.80
26821;DHT22;37186;51.394;5.454;2024-02-21T01:38:23;11.30;88.30
26821;DHT22;37186;51.394;5.454;2024-02-21T01:41:23;11.20;88.30
26821;DHT22;37186;51.394;5.454;2024-02-21T01:44:24;11.20;88.40
26821;DHT22;37186;51.394;5.454;2024-02-21T01:47:25;11.30;88.30
26821;DHT22;37186;51.394;5.454;2024-02-21T01:50:25;11.30;88.30
26821;DHT22;37186;51.394;5.454;2024-02-21T01:53:37;11.30;88.30
26821;DHT22;37186;51.394;5.454;2024-02-21T01:56:40;11.30;88.30
26821;DHT22;37186;51.394;5.454;2024-02-21T01:59:41;11.20;88.30
26821;DHT22;37186;51.394;5.454;2024-02-21T02:02:42;11.30;88.40
26821;DHT22;37186;51.394;5.454;2024-02-21T02:05:46;11.20;88.40
26821;DHT22;37186;51.394;5.454;2024-02-21T02:08:47;11.20;88.40
26821;DHT22;37186;51.394;5.454;2024-02-21T02:11:47;11.20;88.40
26821;DHT22;37186;51.394;5.454;2024-02-21T02:15:00;11.20;88.40
26821;DHT22;37186;51.394;5.454;2024-02-21T02:18:01;11.20;88.40
26821;DHT22;37186;51.394;5.454;2024-02-21T02:21:08;11.20;88.40
26821;DHT22;37186;51.394;5.454;2024-02-21T02:24:12;11.20;89.20
26821;DHT22;37186;51.394;5.454;2024-02-21T02:27:14;11.20;88.50
26821;DHT22;37186;51.394;5.454;2024-02-21T02:30:15;11.20;88.40
26821;DHT22;37186;51.394;5.454;2024-02-21T02:33:15;11.20;88.40
26821;DHT22;37186;51.394;5.454;2024-02-21T02:36:18;11.20;88.40
26821;DHT22;37186;51.394;5.454;2024-02-21T02:39:18;11.20;88.30
26821;DHT22;37186;51.394;5.454;2024-02-21T02:42:19;11.20;88.40
26821;DHT22;37186;51.394;5.454;2024-02-21T02:45:19;11.20;88.40
26821;DHT22;37186;51.394;5.454;2024-02-21T02:48:20;11.20;88.30
26821;DHT22;37186;51.394;5.454;2024-02-21T02:51:20;11.20;88.40
26821;DHT22;37186;51.394;5.454;2024-02-21T02:54:21;11.20;88.40
26821;DHT22;37186;51.394;5.454;2024-02-21T02:57:21;11.20;89.10
26821;DHT22;37186;51.394;5.454;2024-02-21T03:00:22;11.20;88.40
26821;DHT22;37186;51.394;5.454;2024-02-21T03:03:22;11.20;88.40
26821;DHT22;37186;51.394;5.454;2024-02-21T03:06:23;11.20;88.30
26821;DHT22;37186;51.394;5.454;2024-02-21T03:09:23;11.20;88.30
26821;DHT22;37186;51.394;5.454;2024-02-21T03:12:24;11.20;88.30
26821;DHT22;37186;51.394;5.454;2024-02-21T03:15:28;11.20;88.30
26821;DHT22;37186;51.394;5.454;2024-02-21T03:18:28;11.20;88.30
26821;DHT22;37186;51.394;5.454;2024-02-21T03:21:29;11.20;88.40
26821;DHT22;37186;51.394;5.454;2024-02-21T03:24:31;11.20;88.40
26821;DHT22;37186;51.394;5.454;2024-02-21T03:27:31;11.20;88.40
26821;DHT22;37186;51.394;5.454;2024-02-21T03:30:32;11.20;88.40
26821;DHT22;37186;51.394;5.454;2024-02-21T03:33:34;11.20;88.40
26821;DHT22;37186;51.394;5.454;2024-02-21T03:36:34;11.20;88.40
26821;DHT22;37186;51.394;5.454;2024-02-21T03:39:35;11.20;88.40
26821;DHT22;37186;51.394;5.454;2024-02-21T03:42:35;11.20;88.40
26821;DHT22;37186;51.394;5.454;2024-02-21T03:45:36;11.20;88.30
26821;DHT22;37186;51.394;5.454;2024-02-21T03:48:36;11.20;88.30
26821;DHT22;37186;51.394;5.454;2024-02-21T03:51:37;11.20;88.30
26821;DHT22;37186;51.394;5.454;2024-02-21T03:54:37;11.20;88.30
26821;DHT22;37186;51.394;5.454;2024-02-21T03:57:38;11.20;88.30
26821;DHT22;37186;51.394;5.454;2024-02-21T04:00:39;11.10;88.20
26821;DHT22;37186;51.394;5.454;2024-02-21T04:03:40;11.20;88.40
26821;DHT22;37186;51.394;5.454;2024-02-21T04:06:49;11.10;88.30
26821;DHT22;37186;51.394;5.454;2024-02-21T04:09:50;11.10;88.30
26821;DHT22;37186;51.394;5.454;2024-02-21T04:12:51;11.10;88.40
26821;DHT22;37186;51.394;5.454;2024-02-21T04:15:51;11.10;88.40
26821;DHT22;37186;51.394;5.454;2024-02-21T04:18:52;11.10;88.30
26821;DHT22;37186;51.394;5.454;2024-02-21T04:21:52;11.20;88.30
26821;DHT22;37186;51.394;5.454;2024-02-21T04:24:53;11.10;88.30
26821;DHT22;37186;51.394;5.454;2024-02-21T04:27:53;11.10;88.30
26821;DHT22;37186;51.394;5.454;2024-02-21T04:30:54;11.10;88.40
26821;DHT22;37186;51.394;5.454;2024-02-21T04:33:56;11.10;88.40
26821;DHT22;37186;51.394;5.454;2024-02-21T04:36:56;11.10;88.50
26821;DHT22;37186;51.394;5.454;2024-02-21T04:39:59;11.10;88.40
26821;DHT22;37186;51.394;5.454;2024-02-21T04:42:59;11.10;88.40
26821;DHT22;37186;51.394;5.454;2024-02-21T04:46:00;11.10;88.40
26821;DHT22;37186;51.394;5.454;2024-02-21T04:49:01;11.10;88.40
26821;DHT22;37186;51.394;5.454;2024-02-21T04:52:01;11.10;89.10
26821;DHT22;37186;51.394;5.454;2024-02-21T04:55:02;11.10;88.40
26821;DHT22;37186;51.394;5.454;2024-02-21T04:58:03;11.10;88.40
26821;DHT22;37186;51.394;5.454;2024-02-21T05:01:04;11.10;88.40
26821;DHT22;37186;51.394;5.454;2024-02-21T05:04:04;11.10;88.40
26821;DHT22;37186;51.394;5.454;2024-02-21T05:07:05;11.10;88.40
26821;DHT22;37186;51.394;5.454;2024-02-21T05:10:07;11.10;88.40
26821;DHT22;37186;51.394;5.454;2024-02-21T05:13:08;11.10;88.40
26821;DHT22;37186;51.394;5.454;2024-02-21T05:16:09;11.10;88.50
26821;DHT22;37186;51.394;5.454;2024-02-21T05:19:09;11.10;88.50
26821;DHT22;37186;51.394;5.454;2024-02-21T05:22:10;11.10;88.50
26821;DHT22;37186;51.394;5.454;2024-02-21T05:25:11;11.10;88.50
26821;DHT22;37186;51.394;5.454;2024-02-21T05:28:12;11.10;88.30
26821;DHT22;37186;51.394;5.454;2024-02-21T05:31:12;11.10;88.40
26821;DHT22;37186;51.394;5.454;2024-02-21T05:34:14;11.10;88.40
26821;DHT22;37186;51.394;5.454;2024-02-21T05:37:14;11.10;88.40
26821;DHT22;37186;51.394;5.454;2024-02-21T05:40:15;11.10;88.40
26821;DHT22;37186;51.394;5.454;2024-02-21T05:43:16;11.10;88.50
26821;DHT22;37186;51.394;5.454;2024-02-21T05:46:19;11.10;88.40
26821;DHT22;37186;51.394;5.454;2024-02-21T05:49:20;11.10;88.40
26821;DHT22;37186;51.394;5.454;2024-02-21T05:52:20;11.10;88.40
26821;DHT22;37186;51.394;5.454;2024-02-21T05:55:21;11.10;88.40
26821;DHT22;37186;51.394;5.454;2024-02-21T05:58:22;11.10;88.40
26821;DHT22;37186;51.394;5.454;2024-02-21T06:01:22;11.10;88.50
26821;DHT22;37186;51.394;5.454;2024-02-21T06:04:23;11.10;88.40
26821;DHT22;37186;51.394;5.454;2024-02-21T06:07:23;11.10;88.40
26821;DHT22;37186;51.394;5.454;2024-02-21T06:10:24;11.10;88.40
26821;DHT22;37186;51.394;5.454;2024-02-21T06:13:24;11.10;88.40
26821;DHT22;37186;51.394;5.454;2024-02-21T06:16:25;11.10;88.40
26821;DHT22;37186;51.394;5.454;2024-02-21T06:19:25;11.10;88.50
26821;DHT22;37186;51.394;5.454;2024-02-21T06:22:26;11.10;88.50
26821;DHT22;37186;51.394;5.454;2024-02-21T06:25:26;11.10;88.50
26821;DHT22;37186;51.394;5.454;2024-02-21T06:28:27;11.10;88.40
26821;DHT22;37186;51.394;5.454;2024-02-21T06:31:28;11.10;88.40
26821;DHT22;37186;51.394;5.454;2024-02-21T06:34:29;11.00;88.30
26821;DHT22;37186;51.394;5.454;2024-02-21T06:37:29;11.00;88.20
26821;DHT22;37186;51.394;5.454;2024-02-21T06:40:30;11.00;88.30
26821;DHT22;37186;51.394;5.454;2024-02-21T06:43:38;11.10;88.40
26821;DHT22;37186;51.394;5.454;2024-02-21T06:46:39;11.10;88.40
26821;DHT22;37186;51.394;5.454;2024-02-21T06:49:39;11.00;88.40
26821;DHT22;37186;51.394;5.454;2024-02-21T06:52:40;11.00;88.40
26821;DHT22;37186;51.394;5.454;2024-02-21T06:55:40;11.00;88.40
26821;DHT22;37186;51.394;5.454;2024-02-21T06:58:41;11.00;88.40
26821;DHT22;37186;51.394;5.454;2024-02-21T07:01:53;11.00;88.40
26821;DHT22;37186;51.394;5.454;2024-02-21T07:04:55;11.00;88.40
26821;DHT22;37186;51.394;5.454;2024-02-21T07:07:56;11.00;88.40
26821;DHT22;37186;51.394;5.454;2024-02-21T07:10:56;11.00;88.30
26821;DHT22;37186;51.394;5.454;2024-02-21T07:13:57;11.00;88.40
26821;DHT22;37186;51.394;5.454;2024-02-21T07:16:58;11.00;88.40
26821;DHT22;37186;51.394;5.454;2024-02-21T07:19:58;11.00;88.30
26821;DHT22;37186;51.394;5.454;2024-02-21T07:22:59;11.00;88.40
26821;DHT22;37186;51.394;5.454;2024-02-21T07:26:00;11.00;88.30
26821;DHT22;37186;51.394;5.454;2024-02-21T07:29:00;11.00;88.40
26821;DHT22;37186;51.394;5.454;2024-02-21T07:32:02;11.00;88.40
26821;DHT22;37186;51.394;5.454;2024-02-21T07:35:02;11.00;88.40
26821;DHT22;37186;51.394;5.454;2024-02-21T07:38:06;11.00;88.40
26821;DHT22;37186;51.394;5.454;2024-02-21T07:41:07;11.00;88.40
26821;DHT22;37186;51.394;5.454;2024-02-21T07:44:08;11.00;88.30
26821;DHT22;37186;51.394;5.454;2024-02-21T07:47:08;11.00;88.30
26821;DHT22;37186;51.394;5.454;2024-02-21T07:50:09;11.00;88.40
26821;DHT22;37186;51.394;5.454;2024-02-21T07:53:10;11.00;88.40
26821;DHT22;37186;51.394;5.454;2024-02-21T07:56:14;11.00;88.40
26821;DHT22;37186;51.394;5.454;2024-02-21T07:59:14;11.00;88.40
26821;DHT22;37186;51.394;5.454;2024-02-21T08:02:15;11.00;88.30
26821;DHT22;37186;51.394;5.454;2024-02-21T08:05:16;11.00;88.30
26821;DHT22;37186;51.394;5.454;2024-02-21T08:08:16;11.00;88.30
26821;DHT22;37186;51.394;5.454;2024-02-21T08:11:20;11.00;88.40
26821;DHT22;37186;51.394;5.454;2024-02-21T08:14:21;11.00;88.40
26821;DHT22;37186;51.394;5.454;2024-02-21T08:17:21;11.00;88.40
26821;DHT22;37186;51.394;5.454;2024-02-21T08:20:22;11.00;88.40
26821;DHT22;37186;51.394;5.454;2024-02-21T08:23:23;11.00;88.40
26821;DHT22;37186;51.394;5.454;2024-02-21T08:26:24;11.10;88.40
26821;DHT22;37186;51.394;5.454;2024-02-21T08:29:28;11.00;88.40
26821;DHT22;37186;51.394;5.454;2024-02-21T08:32:29;11.10;88.60
26821;DHT22;37186;51.394;5.454;2024-02-21T08:35:29;11.00;88.40
26821;DHT22;37186;51.394;5.454;2024-02-21T08:38:30;11.00;88.40
26821;DHT22;37186;51.394;5.454;2024-02-21T08:41:31;11.00;88.50
26821;DHT22;37186;51.394;5.454;2024-02-21T08:44:32;11.10;88.50
26821;DHT22;37186;51.394;5.454;2024-02-21T08:47:32;11.10;88.50
26821;DHT22;37186;51.394;5.454;2024-02-21T08:50:33;11.10;89.30
26821;DHT22;37186;51.394;5.454;2024-02-21T08:53:33;11.10;88.60
26821;DHT22;37186;51.394;5.454;2024-02-21T08:56:34;11.10;88.50
26821;DHT22;37186;51.394;5.454;2024-02-21T08:59:35;11.10;88.60
26821;DHT22;37186;51.394;5.454;2024-02-21T09:02:39;11.10;88.60
26821;DHT22;37186;51.394;5.454;2024-02-21T09:05:40;11.10;88.80
26821;DHT22;37186;51.394;5.454;2024-02-21T09:08:41;11.10;88.80
26821;DHT22;37186;51.394;5.454;2024-02-21T09:11:42;11.10;88.90
26821;DHT22;37186;51.394;5.454;2024-02-21T09:14:43;11.10;88.80
26821;DHT22;37186;51.394;5.454;2024-02-21T09:17:44;11.10;88.80
26821;DHT22;37186;51.394;5.454;2024-02-21T09:20:45;11.10;88.80
26821;DHT22;37186;51.394;5.454;2024-02-21T09:23:45;11.10;88.80
26821;DHT22;37186;51.394;5.454;2024-02-21T09:26:46;11.20;88.80
26821;DHT22;37186;51.394;5.454;2024-02-21T09:29:49;11.10;88.80
26821;DHT22;37186;51.394;5.454;2024-02-21T09:32:50;11.10;88.80
26821;DHT22;37186;51.394;5.454;2024-02-21T09:35:50;11.10;88.90
26821;DHT22;37186;51.394;5.454;2024-02-21T09:38:51;11.10;88.80
26821;DHT22;37186;51.394;5.454;2024-02-21T09:41:55;11.10;88.80
26821;DHT22;37186;51.394;5.454;2024-02-21T09:44:59;11.10;88.80
26821;DHT22;37186;51.394;5.454;2024-02-21T09:51:32;11.10;88.90
26821;DHT22;37186;51.394;5.454;2024-02-21T09:54:34;11.20;88.90
26821;DHT22;37186;51.394;5.454;2024-02-21T09:57:35;11.20;88.80
26821;DHT22;37186;51.394;5.454;2024-02-21T10:00:36;11.20;88.80
26821;DHT22;37186;51.394;5.454;2024-02-21T10:03:37;11.20;88.80
26821;DHT22;37186;51.394;5.454;2024-02-21T10:06:37;11.20;88.80
26821;DHT22;37186;51.394;5.454;2024-02-21T10:09:39;11.20;88.90
26821;DHT22;37186;51.394;5.454;2024-02-21T10:12:50;11.20;88.90
26821;DHT22;37186;51.394;5.454;2024-02-21T10:19:05;11.20;88.80
26821;DHT22;37186;51.394;5.454;2024-02-21T10:22:08;11.30;88.90
26821;DHT22;37186;51.394;5.454;2024-02-21T10:25:09;11.30;88.90
26821;DHT22;37186;51.394;5.454;2024-02-21T10:28:12;11.30;88.90
26821;DHT22;37186;51.394;5.454;2024-02-21T10:31:24;11.30;88.80
26821;DHT22;37186;51.394;5.454;2024-02-21T10:34:24;11.30;88.80
26821;DHT22;37186;51.394;5.454;2024-02-21T10:37:25;11.40;88.60
26821;DHT22;37186;51.394;5.454;2024-02-21T10:40:29;11.40;88.60
26821;DHT22;37186;51.394;5.454;2024-02-21T10:43:37;11.40;88.50
26821;DHT22;37186;51.394;5.454;2024-02-21T10:46:40;11.40;88.60
26821;DHT22;37186;51.394;5.454;2024-02-21T10:49:44;11.40;88.50
26821;DHT22;37186;51.394;5.454;2024-02-21T10:53:09;11.50;88.60
26821;DHT22;37186;51.394;5.454;2024-02-21T10:59:19;11.50;88.60
26821;DHT22;37186;51.394;5.454;2024-02-21T11:02:20;11.50;88.60
26821;DHT22;37186;51.394;5.454;2024-02-21T11:05:21;11.60;88.80
26821;DHT22;37186;51.394;5.454;2024-02-21T11:08:22;11.60;88.70
26821;DHT22;37186;51.394;5.454;2024-02-21T11:11:25;11.60;88.60
26821;DHT22;37186;51.394;5.454;2024-02-21T11:14:27;11.60;88.50
26821;DHT22;37186;51.394;5.454;2024-02-21T11:17:27;11.60;88.50
26821;DHT22;37186;51.394;5.454;2024-02-21T11:20:36;11.70;88.50
26821;DHT22;37186;51.394;5.454;2024-02-21T11:23:36;11.70;88.50
26821;DHT22;37186;51.394;5.454;2024-02-21T11:26:38;11.70;88.30
26821;DHT22;37186;51.394;5.454;2024-02-21T11:29:58;11.70;88.10
26821;DHT22;37186;51.394;5.454;2024-02-21T11:33:17;11.70;88.30
26821;DHT22;37186;51.394;5.454;2024-02-21T11:36:26;11.80;88.30
26821;DHT22;37186;51.394;5.454;2024-02-21T11:39:27;11.70;88.50
26821;DHT22;37186;51.394;5.454;2024-02-21T11:42:28;11.80;88.30
26821;DHT22;37186;51.394;5.454;2024-02-21T11:45:29;11.80;88.40
26821;DHT22;37186;51.394;5.454;2024-02-21T11:48:32;11.90;88.30
26821;DHT22;37186;51.394;5.454;2024-02-21T11:51:34;11.90;88.30
26821;DHT22;37186;51.394;5.454;2024-02-21T11:54:35;11.90;88.50
26821;DHT22;37186;51.394;5.454;2024-02-21T11:57:37;11.90;88.30
26821;DHT22;37186;51.394;5.454;2024-02-21T12:00:41;12.00;88.10
26821;DHT22;37186;51.394;5.454;2024-02-21T12:03:42;12.00;88.10
26821;DHT22;37186;51.394;5.454;2024-02-21T12:06:49;12.00;88.20
26821;DHT22;37186;51.394;5.454;2024-02-21T12:09:51;12.10;88.20
26821;DHT22;37186;51.394;5.454;2024-02-21T12:12:51;12.10;88.20
26821;DHT22;37186;51.394;5.454;2024-02-21T12:15:52;12.10;88.10
26821;DHT22;37186;51.394;5.454;2024-02-21T12:18:53;12.20;88.00
26821;DHT22;37186;51.394;5.454;2024-02-21T12:21:54;12.20;87.80
26821;DHT22;37186;51.394;5.454;2024-02-21T12:24:59;12.20;87.70
26821;DHT22;37186;51.394;5.454;2024-02-21T12:27:59;12.30;87.40
26821;DHT22;37186;51.394;5.454;2024-02-21T12:31:01;12.30;87.60
26821;DHT22;37186;51.394;5.454;2024-02-21T12:34:01;12.30;87.70
26821;DHT22;37186;51.394;5.454;2024-02-21T12:37:02;12.40;87.70
26821;DHT22;37186;51.394;5.454;2024-02-21T12:40:06;12.40;87.40
26821;DHT22;37186;51.394;5.454;2024-02-21T12:43:07;12.50;86.60
26821;DHT22;37186;51.394;5.454;2024-02-21T12:46:08;12.50;87.20
26821;DHT22;37186;51.394;5.454;2024-02-21T12:49:09;12.50;87.40
26821;DHT22;37186;51.394;5.454;2024-02-21T12:52:10;12.50;87.30
26821;DHT22;37186;51.394;5.454;2024-02-21T12:55:11;12.50;87.70
26821;DHT22;37186;51.394;5.454;2024-02-21T12:58:13;12.50;87.60
26821;DHT22;37186;51.394;5.454;2024-02-21T13:01:14;12.50;87.60
26821;DHT22;37186;51.394;5.454;2024-02-21T13:04:14;12.60;87.90
26821;DHT22;37186;51.394;5.454;2024-02-21T13:07:15;12.50;88.40
26821;DHT22;37186;51.394;5.454;2024-02-21T13:10:15;12.50;86.70
26821;DHT22;37186;51.394;5.454;2024-02-21T13:13:16;12.60;86.80
26821;DHT22;37186;51.394;5.454;2024-02-21T13:16:16;12.60;86.20
26821;DHT22;37186;51.394;5.454;2024-02-21T13:19:17;12.60;85.90
26821;DHT22;37186;51.394;5.454;2024-02-21T13:22:18;12.60;86.90
26821;DHT22;37186;51.394;5.454;2024-02-21T13:25:20;12.60;86.60
26821;DHT22;37186;51.394;5.454;2024-02-21T13:28:21;12.60;86.40
26821;DHT22;37186;51.394;5.454;2024-02-21T13:31:22;12.60;86.10
26821;DHT22;37186;51.394;5.454;2024-02-21T13:34:22;12.50;86.50
26821;DHT22;37186;51.394;5.454;2024-02-21T13:37:23;12.60;86.30
26821;DHT22;37186;51.394;5.454;2024-02-21T13:40:23;12.50;86.30
26821;DHT22;37186;51.394;5.454;2024-02-21T13:43:26;12.50;86.50
26821;DHT22;37186;51.394;5.454;2024-02-21T13:46:26;12.50;86.70
26821;DHT22;37186;51.394;5.454;2024-02-21T13:49:27;12.50;86.50
26821;DHT22;37186;51.394;5.454;2024-02-21T13:52:28;12.50;86.90
26821;DHT22;37186;51.394;5.454;2024-02-21T13:55:29;12.50;86.00
26821;DHT22;37186;51.394;5.454;2024-02-21T13:58:29;12.50;86.60
26821;DHT22;37186;51.394;5.454;2024-02-21T14:01:29;12.60;86.20
26821;DHT22;37186;51.394;5.454;2024-02-21T14:04:32;12.60;86.70
26821;DHT22;37186;51.394;5.454;2024-02-21T14:07:36;12.60;86.70
26821;DHT22;37186;51.394;5.454;2024-02-21T14:10:36;12.60;86.40
26821;DHT22;37186;51.394;5.454;2024-02-21T14:13:37;12.60;85.70
26821;DHT22;37186;51.394;5.454;2024-02-21T14:16:38;12.60;86.60
26821;DHT22;37186;51.394;5.454;2024-02-21T14:19:38;12.60;85.90
26821;DHT22;37186;51.394;5.454;2024-02-21T14:22:39;12.60;86.20
26821;DHT22;37186;51.394;5.454;2024-02-21T14:25:39;12.50;86.50
26821;DHT22;37186;51.394;5.454;2024-02-21T14:28:40;12.60;86.10
26821;DHT22;37186;51.394;5.454;2024-02-21T14:31:41;12.50;86.00
26821;DHT22;37186;51.394;5.454;2024-02-21T14:34:43;12.50;86.10
26821;DHT22;37186;51.394;5.454;2024-02-21T14:37:43;12.50;86.40
26821;DHT22;37186;51.394;5.454;2024-02-21T14:40:44;12.50;85.60
26821;DHT22;37186;51.394;5.454;2024-02-21T14:43:44;12.50;85.70
26821;DHT22;37186;51.394;5.454;2024-02-21T14:46:45;12.50;85.90
26821;DHT22;37186;51.394;5.454;2024-02-21T14:49:46;12.50;85.90
26821;DHT22;37186;51.394;5.454;2024-02-21T14:52:46;12.50;85.90
26821;DHT22;37186;51.394;5.454;2024-02-21T14:55:47;12.50;86.00
26821;DHT22;37186;51.394;5.454;2024-02-21T14:58:47;12.50;85.90
26821;DHT22;37186;51.394;5.454;2024-02-21T15:01:48;12.40;86.20
26821;DHT22;37186;51.394;5.454;2024-02-21T15:04:49;12.50;85.80
26821;DHT22;37186;51.394;5.454;2024-02-21T15:07:51;12.40;86.20
26821;DHT22;37186;51.394;5.454;2024-02-21T15:10:52;12.50;86.50
26821;DHT22;37186;51.394;5.454;2024-02-21T15:13:53;12.40;86.20
26821;DHT22;37186;51.394;5.454;2024-02-21T15:16:54;12.40;85.90
26821;DHT22;37186;51.394;5.454;2024-02-21T15:19:54;12.40;86.30
26821;DHT22;37186;51.394;5.454;2024-02-21T15:22:56;12.40;86.40
26821;DHT22;37186;51.394;5.454;2024-02-21T15:25:57;12.40;86.10
26821;DHT22;37186;51.394;5.454;2024-02-21T15:28:59;12.40;86.40
26821;DHT22;37186;51.394;5.454;2024-02-21T15:32:00;12.30;86.50
26821;DHT22;37186;51.394;5.454;2024-02-21T15:35:00;12.30;86.40
26821;DHT22;37186;51.394;5.454;2024-02-21T15:38:02;12.30;86.30
26821;DHT22;37186;51.394;5.454;2024-02-21T15:41:03;12.30;86.50
26821;DHT22;37186;51.394;5.454;2024-02-21T15:44:04;12.30;86.60
26821;DHT22;37186;51.394;5.454;2024-02-21T15:47:05;12.20;86.80
26821;DHT22;37186;51.394;5.454;2024-02-21T15:50:06;12.20;86.80
26821;DHT22;37186;51.394;5.454;2024-02-21T15:53:07;12.20;86.90
26821;DHT22;37186;51.394;5.454;2024-02-21T15:56:08;12.20;87.10
26821;DHT22;37186;51.394;5.454;2024-02-21T15:59:08;12.20;87.00
26821;DHT22;37186;51.394;5.454;2024-02-21T16:02:11;12.20;87.00
26821;DHT22;37186;51.394;5.454;2024-02-21T16:05:11;12.20;87.00
26821;DHT22;37186;51.394;5.454;2024-02-21T16:08:12;12.20;87.10
26821;DHT22;37186;51.394;5.454;2024-02-21T16:11:16;12.20;87.20
26821;DHT22;37186;51.394;5.454;2024-02-21T16:14:17;12.10;87.10
26821;DHT22;37186;51.394;5.454;2024-02-21T16:17:18;12.10;87.20
26821;DHT22;37186;51.394;5.454;2024-02-21T16:20:19;12.10;87.30
26821;DHT22;37186;51.394;5.454;2024-02-21T16:23:20;12.10;87.30
26821;DHT22;37186;51.394;5.454;2024-02-21T16:26:21;12.10;87.40
26821;DHT22;37186;51.394;5.454;2024-02-21T16:29:22;12.10;87.40
26821;DHT22;37186;51.394;5.454;2024-02-21T16:32:23;12.00;87.40
26821;DHT22;37186;51.394;5.454;2024-02-21T16:35:23;12.00;87.30
26821;DHT22;37186;51.394;5.454;2024-02-21T16:38:24;12.00;87.30
26821;DHT22;37186;51.394;5.454;2024-02-21T16:41:27;12.00;87.30
26821;DHT22;37186;51.394;5.454;2024-02-21T16:44:30;12.00;87.40
26821;DHT22;37186;51.394;5.454;2024-02-21T16:47:31;12.00;87.40
26821;DHT22;37186;51.394;5.454;2024-02-21T16:50:32;11.90;87.50
26821;DHT22;37186;51.394;5.454;2024-02-21T16:53:33;11.90;87.40
26821;DHT22;37186;51.394;5.454;2024-02-21T16:56:33;11.90;87.40
26821;DHT22;37186;51.394;5.454;2024-02-21T16:59:34;11.90;87.50
26821;DHT22;37186;51.394;5.454;2024-02-21T17:02:34;11.80;87.60
26821;DHT22;37186;51.394;5.454;2024-02-21T17:05:36;11.80;87.60
26821;DHT22;37186;51.394;5.454;2024-02-21T17:08:37;11.80;87.60
26821;DHT22;37186;51.394;5.454;2024-02-21T17:11:37;11.80;87.60
26821;DHT22;37186;51.394;5.454;2024-02-21T17:14:38;11.80;87.70
26821;DHT22;37186;51.394;5.454;2024-02-21T17:17:40;11.70;87.60
26821;DHT22;37186;51.394;5.454;2024-02-21T17:20:40;11.70;87.70
26821;DHT22;37186;51.394;5.454;2024-02-21T17:23:41;11.70;87.80
26821;DHT22;37186;51.394;5.454;2024-02-21T17:26:41;11.70;87.90
26821;DHT22;37186;51.394;5.454;2024-02-21T17:29:42;11.70;87.90
26821;DHT22;37186;51.394;5.454;2024-02-21T17:32:43;11.60;88.00
26821;DHT22;37186;51.394;5.454;2024-02-21T17:35:43;11.60;88.00
26821;DHT22;37186;51.394;5.454;2024-02-21T17:38:48;11.60;88.00
26821;DHT22;37186;51.394;5.454;2024-02-21T17:41:51;11.60;88.10
26821;DHT22;37186;51.394;5.454;2024-02-21T17:44:53;11.60;88.10
26821;DHT22;37186;51.394;5.454;2024-02-21T17:47:53;11.60;88.20
26821;DHT22;37186;51.394;5.454;2024-02-21T17:50:54;11.60;88.10
26821;DHT22;37186;51.394;5.454;2024-02-21T17:53:55;11.60;88.00
26821;DHT22;37186;51.394;5.454;2024-02-21T17:56:56;11.60;88.10
26821;DHT22;37186;51.394;5.454;2024-02-21T17:59:57;11.50;88.30
26821;DHT22;37186;51.394;5.454;2024-02-21T18:02:59;11.50;88.40
26821;DHT22;37186;51.394;5.454;2024-02-21T18:06:01;11.50;88.40
26821;DHT22;37186;51.394;5.454;2024-02-21T18:09:02;11.50;88.50
26821;DHT22;37186;51.394;5.454;2024-02-21T18:12:04;11.50;88.50
26821;DHT22;37186;51.394;5.454;2024-02-21T18:15:05;11.50;88.50
26821;DHT22;37186;51.394;5.454;2024-02-21T18:18:06;11.40;88.30
26821;DHT22;37186;51.394;5.454;2024-02-21T18:21:07;11.40;88.50
26821;DHT22;37186;51.394;5.454;2024-02-21T18:24:07;11.40;88.40
26821;DHT22;37186;51.394;5.454;2024-02-21T18:27:08;11.40;88.80
26821;DHT22;37186;51.394;5.454;2024-02-21T18:30:09;11.40;88.80
26821;DHT22;37186;51.394;5.454;2024-02-21T18:33:09;11.40;88.70
26821;DHT22;37186;51.394;5.454;2024-02-21T18:36:13;11.40;88.60
26821;DHT22;37186;51.394;5.454;2024-02-21T18:39:14;11.40;88.80
26821;DHT22;37186;51.394;5.454;2024-02-21T18:42:15;11.40;89.00
26821;DHT22;37186;51.394;5.454;2024-02-21T18:45:16;11.40;88.90
26821;DHT22;37186;51.394;5.454;2024-02-21T18:48:16;11.40;88.90
26821;DHT22;37186;51.394;5.454;2024-02-21T18:51:17;11.40;88.80
26821;DHT22;37186;51.394;5.454;2024-02-21T18:54:18;11.40;89.00
26821;DHT22;37186;51.394;5.454;2024-02-21T18:57:18;11.40;89.00
26821;DHT22;37186;51.394;5.454;2024-02-21T19:00:19;11.40;89.10
26821;DHT22;37186;51.394;5.454;2024-02-21T19:03:23;11.40;89.30
26821;DHT22;37186;51.394;5.454;2024-02-21T19:06:23;11.40;89.20
26821;DHT22;37186;51.394;5.454;2024-02-21T19:09:24;11.40;89.30
26821;DHT22;37186;51.394;5.454;2024-02-21T19:12:24;11.40;89.10
26821;DHT22;37186;51.394;5.454;2024-02-21T19:15:26;11.30;89.10